sensor_id;sensor_type;location;lat;lon;timestamp;P1;durP1;ratioP1;P2;durP2;ratioP2
7128;SDS011;3606;52.930;8.644;2023-04-12T00:00:45;7.20;;;2.90;;
7128;SDS011;3606;52.930;8.644;2023-04-12T00:03:10;4.50;;;2.47;;
7128;SDS011;3606;52.930;8.644;2023-04-12T00:05:36;7.10;;;2.80;;
7128;SDS011;3606;52.930;8.644;2023-04-12T00:08:01;4.97;;;2.60;;
7128;SDS011;3606;52.930;8.644;2023-04-12T00:10:29;5.83;;;2.40;;
7128;SDS011;3606;52.930;8.644;2023-04-12T00:12:54;3.93;;;2.43;;
7128;SDS011;3606;52.930;8.644;2023-04-12T00:15:20;8.07;;;2.60;;
7128;SDS011;3606;52.930;8.644;2023-04-12T00:17:46;4.27;;;2.47;;
7128;SDS011;3606;52.930;8.644;2023-04-12T00:20:11;5.07;;;2.33;;
7128;SDS011;3606;52.930;8.644;2023-04-12T00:22:40;7.90;;;2.30;;
7128;SDS011;3606;52.930;8.644;2023-04-12T00:25:06;4.77;;;2.23;;
7128;SDS011;3606;52.930;8.644;2023-04-12T00:27:32;5.57;;;2.40;;
7128;SDS011;3606;52.930;8.644;2023-04-12T00:29:58;4.23;;;2.70;;
7128;SDS011;3606;52.930;8.644;2023-04-12T00:32:23;5.47;;;2.50;;
7128;SDS011;3606;52.930;8.644;2023-04-12T00:34:49;8.93;;;2.37;;
7128;SDS011;3606;52.930;8.644;2023-04-12T00:37:15;6.73;;;2.30;;
7128;SDS011;3606;52.930;8.644;2023-04-12T00:39:41;5.63;;;2.10;;
7128;SDS011;3606;52.930;8.644;2023-04-12T00:42:06;5.13;;;2.17;;
7128;SDS011;3606;52.930;8.644;2023-04-12T00:44:32;4.67;;;1.90;;
7128;SDS011;3606;52.930;8.644;2023-04-12T00:46:58;3.30;;;1.97;;
7128;SDS011;3606;52.930;8.644;2023-04-12T00:49:24;5.53;;;2.23;;
7128;SDS011;3606;52.930;8.644;2023-04-12T00:51:55;5.37;;;2.80;;
7128;SDS011;3606;52.930;8.644;2023-04-12T00:54:38;5.97;;;2.23;;
7128;SDS011;3606;52.930;8.644;2023-04-12T00:57:05;4.17;;;2.03;;
7128;SDS011;3606;52.930;8.644;2023-04-12T00:59:31;8.00;;;2.57;;
7128;SDS011;3606;52.930;8.644;2023-04-12T01:01:56;9.60;;;2.20;;
7128;SDS011;3606;52.930;8.644;2023-04-12T01:04:23;6.27;;;2.10;;
7128;SDS011;3606;52.930;8.644;2023-04-12T01:06:58;4.83;;;2.40;;
7128;SDS011;3606;52.930;8.644;2023-04-12T01:15:08;11.30;;;2.00;;
7128;SDS011;3606;52.930;8.644;2023-04-12T01:18:21;6.83;;;2.33;;
7128;SDS011;3606;52.930;8.644;2023-04-12T01:20:34;4.60;;;2.13;;
7128;SDS011;3606;52.930;8.644;2023-04-12T01:28:58;5.83;;;2.27;;
7128;SDS011;3606;52.930;8.644;2023-04-12T01:31:27;5.13;;;2.23;;
7128;SDS011;3606;52.930;8.644;2023-04-12T01:33:55;4.60;;;2.10;;
7128;SDS011;3606;52.930;8.644;2023-04-12T01:36:21;7.03;;;2.40;;
7128;SDS011;3606;52.930;8.644;2023-04-12T01:38:51;6.03;;;2.10;;
7128;SDS011;3606;52.930;8.644;2023-04-12T01:41:18;6.37;;;2.37;;
7128;SDS011;3606;52.930;8.644;2023-04-12T01:43:45;3.90;;;2.23;;
7128;SDS011;3606;52.930;8.644;2023-04-12T01:46:11;5.67;;;1.90;;
7128;SDS011;3606;52.930;8.644;2023-04-12T01:48:41;5.67;;;2.00;;
7128;SDS011;3606;52.930;8.644;2023-04-12T01:51:27;4.77;;;2.33;;
7128;SDS011;3606;52.930;8.644;2023-04-12T01:54:16;3.47;;;2.20;;
7128;SDS011;3606;52.930;8.644;2023-04-12T01:56:50;4.73;;;2.10;;
7128;SDS011;3606;52.930;8.644;2023-04-12T01:59:21;4.90;;;2.47;;
7128;SDS011;3606;52.930;8.644;2023-04-12T02:01:50;5.23;;;2.27;;
7128;SDS011;3606;52.930;8.644;2023-04-12T02:04:16;3.97;;;2.27;;
7128;SDS011;3606;52.930;8.644;2023-04-12T02:06:43;7.77;;;2.40;;
7128;SDS011;3606;52.930;8.644;2023-04-12T02:09:10;4.60;;;2.47;;
7128;SDS011;3606;52.930;8.644;2023-04-12T02:11:36;6.13;;;2.23;;
7128;SDS011;3606;52.930;8.644;2023-04-12T02:14:01;4.43;;;2.37;;
7128;SDS011;3606;52.930;8.644;2023-04-12T02:16:27;2.83;;;2.03;;
7128;SDS011;3606;52.930;8.644;2023-04-12T02:18:56;5.37;;;2.20;;
7128;SDS011;3606;52.930;8.644;2023-04-12T02:21:22;2.47;;;2.10;;
7128;SDS011;3606;52.930;8.644;2023-04-12T02:23:48;6.13;;;2.37;;
7128;SDS011;3606;52.930;8.644;2023-04-12T02:26:14;7.63;;;2.43;;
7128;SDS011;3606;52.930;8.644;2023-04-12T02:28:41;8.20;;;2.57;;
7128;SDS011;3606;52.930;8.644;2023-04-12T02:31:08;4.27;;;2.37;;
7128;SDS011;3606;52.930;8.644;2023-04-12T02:33:33;5.20;;;2.20;;
7128;SDS011;3606;52.930;8.644;2023-04-12T02:35:59;3.60;;;2.37;;
7128;SDS011;3606;52.930;8.644;2023-04-12T02:38:28;3.03;;;2.10;;
7128;SDS011;3606;52.930;8.644;2023-04-12T02:40:54;4.80;;;2.70;;
7128;SDS011;3606;52.930;8.644;2023-04-12T02:43:20;6.77;;;2.97;;
7128;SDS011;3606;52.930;8.644;2023-04-12T02:45:46;5.20;;;2.47;;
7128;SDS011;3606;52.930;8.644;2023-04-12T02:48:12;5.60;;;2.27;;
7128;SDS011;3606;52.930;8.644;2023-04-12T02:50:37;6.83;;;2.43;;
7128;SDS011;3606;52.930;8.644;2023-04-12T02:53:03;5.37;;;2.57;;
7128;SDS011;3606;52.930;8.644;2023-04-12T02:55:28;4.27;;;2.53;;
7128;SDS011;3606;52.930;8.644;2023-04-12T02:57:54;8.00;;;2.70;;
7128;SDS011;3606;52.930;8.644;2023-04-12T03:00:21;3.03;;;2.33;;
7128;SDS011;3606;52.930;8.644;2023-04-12T03:02:47;4.27;;;2.30;;
7128;SDS011;3606;52.930;8.644;2023-04-12T03:05:16;7.60;;;2.63;;
7128;SDS011;3606;52.930;8.644;2023-04-12T03:07:42;5.70;;;2.77;;
7128;SDS011;3606;52.930;8.644;2023-04-12T03:10:08;4.13;;;2.50;;
7128;SDS011;3606;52.930;8.644;2023-04-12T03:12:37;6.40;;;2.50;;
7128;SDS011;3606;52.930;8.644;2023-04-12T03:15:03;4.90;;;2.43;;
7128;SDS011;3606;52.930;8.644;2023-04-12T03:17:29;4.20;;;2.20;;
7128;SDS011;3606;52.930;8.644;2023-04-12T03:19:55;3.70;;;2.80;;
7128;SDS011;3606;52.930;8.644;2023-04-12T03:22:22;4.27;;;2.70;;
7128;SDS011;3606;52.930;8.644;2023-04-12T03:24:49;6.93;;;2.70;;
7128;SDS011;3606;52.930;8.644;2023-04-12T03:27:15;3.30;;;2.40;;
7128;SDS011;3606;52.930;8.644;2023-04-12T03:29:41;4.23;;;2.30;;
7128;SDS011;3606;52.930;8.644;2023-04-12T03:32:06;7.07;;;2.43;;
7128;SDS011;3606;52.930;8.644;2023-04-12T03:34:33;4.87;;;2.40;;
7128;SDS011;3606;52.930;8.644;2023-04-12T03:36:59;3.07;;;2.30;;
7128;SDS011;3606;52.930;8.644;2023-04-12T03:39:25;7.60;;;2.90;;
7128;SDS011;3606;52.930;8.644;2023-04-12T03:41:51;7.90;;;2.97;;
7128;SDS011;3606;52.930;8.644;2023-04-12T03:44:17;4.47;;;2.40;;
7128;SDS011;3606;52.930;8.644;2023-04-12T03:46:43;5.17;;;2.80;;
7128;SDS011;3606;52.930;8.644;2023-04-12T03:49:09;3.90;;;2.30;;
7128;SDS011;3606;52.930;8.644;2023-04-12T03:51:35;5.70;;;2.60;;
7128;SDS011;3606;52.930;8.644;2023-04-12T03:54:06;6.87;;;2.80;;
7128;SDS011;3606;52.930;8.644;2023-04-12T03:56:36;4.00;;;2.53;;
7128;SDS011;3606;52.930;8.644;2023-04-12T03:59:03;5.03;;;2.60;;
7128;SDS011;3606;52.930;8.644;2023-04-12T04:01:32;2.83;;;2.20;;
7128;SDS011;3606;52.930;8.644;2023-04-12T04:03:58;8.53;;;3.30;;
7128;SDS011;3606;52.930;8.644;2023-04-12T04:06:24;8.37;;;2.93;;
7128;SDS011;3606;52.930;8.644;2023-04-12T04:08:50;6.77;;;3.03;;
7128;SDS011;3606;52.930;8.644;2023-04-12T04:11:16;9.33;;;2.50;;
7128;SDS011;3606;52.930;8.644;2023-04-12T04:13:41;5.53;;;2.30;;
7128;SDS011;3606;52.930;8.644;2023-04-12T04:16:07;4.03;;;2.53;;
7128;SDS011;3606;52.930;8.644;2023-04-12T04:18:34;8.83;;;2.27;;
7128;SDS011;3606;52.930;8.644;2023-04-12T04:21:00;7.00;;;2.73;;
7128;SDS011;3606;52.930;8.644;2023-04-12T04:23:26;3.70;;;2.50;;
7128;SDS011;3606;52.930;8.644;2023-04-12T04:25:53;9.07;;;2.83;;
7128;SDS011;3606;52.930;8.644;2023-04-12T04:28:19;4.67;;;2.40;;
7128;SDS011;3606;52.930;8.644;2023-04-12T04:30:44;11.83;;;2.87;;
7128;SDS011;3606;52.930;8.644;2023-04-12T04:33:10;3.73;;;2.67;;
7128;SDS011;3606;52.930;8.644;2023-04-12T04:35:39;13.03;;;3.10;;
7128;SDS011;3606;52.930;8.644;2023-04-12T04:38:08;6.93;;;2.03;;
7128;SDS011;3606;52.930;8.644;2023-04-12T04:40:37;5.33;;;2.70;;
7128;SDS011;3606;52.930;8.644;2023-04-12T04:43:02;6.40;;;2.50;;
7128;SDS011;3606;52.930;8.644;2023-04-12T04:45:29;6.30;;;2.70;;
7128;SDS011;3606;52.930;8.644;2023-04-12T04:47:56;6.23;;;2.63;;
7128;SDS011;3606;52.930;8.644;2023-04-12T04:50:22;3.60;;;1.93;;
7128;SDS011;3606;52.930;8.644;2023-04-12T04:52:49;5.50;;;2.50;;
7128;SDS011;3606;52.930;8.644;2023-04-12T04:55:19;7.57;;;2.53;;
7128;SDS011;3606;52.930;8.644;2023-04-12T04:57:45;6.70;;;2.87;;
7128;SDS011;3606;52.930;8.644;2023-04-12T05:00:11;6.20;;;2.50;;
7128;SDS011;3606;52.930;8.644;2023-04-12T05:02:38;9.37;;;2.67;;
7128;SDS011;3606;52.930;8.644;2023-04-12T05:05:06;4.57;;;2.20;;
7128;SDS011;3606;52.930;8.644;2023-04-12T05:07:39;7.53;;;2.40;;
7128;SDS011;3606;52.930;8.644;2023-04-12T05:10:07;3.40;;;2.23;;
7128;SDS011;3606;52.930;8.644;2023-04-12T05:12:34;4.70;;;2.37;;
7128;SDS011;3606;52.930;8.644;2023-04-12T05:15:00;6.33;;;2.37;;
7128;SDS011;3606;52.930;8.644;2023-04-12T05:17:26;4.20;;;2.17;;
7128;SDS011;3606;52.930;8.644;2023-04-12T05:19:52;3.40;;;2.50;;
7128;SDS011;3606;52.930;8.644;2023-04-12T05:22:18;4.07;;;2.43;;
7128;SDS011;3606;52.930;8.644;2023-04-12T05:24:46;4.60;;;2.50;;
7128;SDS011;3606;52.930;8.644;2023-04-12T05:27:13;4.83;;;2.47;;
7128;SDS011;3606;52.930;8.644;2023-04-12T05:29:40;9.83;;;2.57;;
7128;SDS011;3606;52.930;8.644;2023-04-12T05:32:06;4.87;;;2.37;;
7128;SDS011;3606;52.930;8.644;2023-04-12T05:34:32;6.80;;;2.70;;
7128;SDS011;3606;52.930;8.644;2023-04-12T05:36:57;8.73;;;2.60;;
7128;SDS011;3606;52.930;8.644;2023-04-12T05:39:24;8.07;;;2.47;;
7128;SDS011;3606;52.930;8.644;2023-04-12T05:41:50;3.87;;;2.20;;
7128;SDS011;3606;52.930;8.644;2023-04-12T05:44:15;3.17;;;2.23;;
7128;SDS011;3606;52.930;8.644;2023-04-12T05:46:41;6.23;;;2.23;;
7128;SDS011;3606;52.930;8.644;2023-04-12T05:49:07;6.37;;;2.30;;
7128;SDS011;3606;52.930;8.644;2023-04-12T05:51:33;5.40;;;2.30;;
7128;SDS011;3606;52.930;8.644;2023-04-12T05:53:58;8.47;;;2.73;;
7128;SDS011;3606;52.930;8.644;2023-04-12T05:56:25;5.40;;;2.80;;
7128;SDS011;3606;52.930;8.644;2023-04-12T05:58:50;3.73;;;2.27;;
7128;SDS011;3606;52.930;8.644;2023-04-12T06:01:16;6.30;;;1.87;;
7128;SDS011;3606;52.930;8.644;2023-04-12T06:03:44;2.73;;;2.00;;
7128;SDS011;3606;52.930;8.644;2023-04-12T06:06:10;7.30;;;2.00;;
7128;SDS011;3606;52.930;8.644;2023-04-12T06:08:36;3.57;;;2.30;;
7128;SDS011;3606;52.930;8.644;2023-04-12T06:11:02;2.57;;;2.13;;
7128;SDS011;3606;52.930;8.644;2023-04-12T06:13:28;5.37;;;2.80;;
7128;SDS011;3606;52.930;8.644;2023-04-12T06:15:54;4.83;;;2.07;;
7128;SDS011;3606;52.930;8.644;2023-04-12T06:18:20;5.60;;;2.10;;
7128;SDS011;3606;52.930;8.644;2023-04-12T06:20:45;3.20;;;2.00;;
7128;SDS011;3606;52.930;8.644;2023-04-12T06:23:11;7.93;;;2.30;;
7128;SDS011;3606;52.930;8.644;2023-04-12T06:25:36;5.83;;;1.90;;
7128;SDS011;3606;52.930;8.644;2023-04-12T06:28:02;5.73;;;2.13;;
7128;SDS011;3606;52.930;8.644;2023-04-12T06:30:28;9.70;;;2.37;;
7128;SDS011;3606;52.930;8.644;2023-04-12T06:32:54;4.73;;;1.97;;
7128;SDS011;3606;52.930;8.644;2023-04-12T06:35:20;5.93;;;1.77;;
7128;SDS011;3606;52.930;8.644;2023-04-12T06:37:46;4.50;;;1.67;;
7128;SDS011;3606;52.930;8.644;2023-04-12T06:40:12;11.33;;;2.37;;
7128;SDS011;3606;52.930;8.644;2023-04-12T06:42:37;2.67;;;1.70;;
7128;SDS011;3606;52.930;8.644;2023-04-12T06:45:03;4.53;;;2.17;;
7128;SDS011;3606;52.930;8.644;2023-04-12T06:47:30;5.20;;;2.00;;
7128;SDS011;3606;52.930;8.644;2023-04-12T06:49:56;2.33;;;2.00;;
7128;SDS011;3606;52.930;8.644;2023-04-12T06:52:25;2.93;;;1.53;;
7128;SDS011;3606;52.930;8.644;2023-04-12T06:54:51;5.47;;;2.20;;
7128;SDS011;3606;52.930;8.644;2023-04-12T06:57:17;2.77;;;1.83;;
7128;SDS011;3606;52.930;8.644;2023-04-12T06:59:42;6.10;;;2.40;;
7128;SDS011;3606;52.930;8.644;2023-04-12T07:02:08;2.20;;;1.87;;
7128;SDS011;3606;52.930;8.644;2023-04-12T07:04:33;3.67;;;2.07;;
7128;SDS011;3606;52.930;8.644;2023-04-12T07:06:59;8.20;;;2.40;;
7128;SDS011;3606;52.930;8.644;2023-04-12T07:09:25;6.93;;;2.00;;
7128;SDS011;3606;52.930;8.644;2023-04-12T07:11:50;2.53;;;1.83;;
7128;SDS011;3606;52.930;8.644;2023-04-12T07:14:16;8.60;;;2.30;;
7128;SDS011;3606;52.930;8.644;2023-04-12T07:16:42;6.50;;;1.70;;
7128;SDS011;3606;52.930;8.644;2023-04-12T07:19:07;2.63;;;1.90;;
7128;SDS011;3606;52.930;8.644;2023-04-12T07:21:33;4.23;;;1.97;;
7128;SDS011;3606;52.930;8.644;2023-04-12T07:23:59;2.57;;;1.63;;
7128;SDS011;3606;52.930;8.644;2023-04-12T07:26:25;9.40;;;2.50;;
7128;SDS011;3606;52.930;8.644;2023-04-12T07:28:51;4.50;;;2.03;;
7128;SDS011;3606;52.930;8.644;2023-04-12T07:31:16;6.70;;;2.30;;
7128;SDS011;3606;52.930;8.644;2023-04-12T07:33:42;6.87;;;2.23;;
7128;SDS011;3606;52.930;8.644;2023-04-12T07:36:08;4.00;;;2.23;;
7128;SDS011;3606;52.930;8.644;2023-04-12T07:38:34;7.00;;;2.00;;
7128;SDS011;3606;52.930;8.644;2023-04-12T07:41:00;5.50;;;2.27;;
7128;SDS011;3606;52.930;8.644;2023-04-12T07:43:25;4.17;;;2.07;;
7128;SDS011;3606;52.930;8.644;2023-04-12T07:45:53;3.73;;;2.10;;
7128;SDS011;3606;52.930;8.644;2023-04-12T07:48:19;2.73;;;2.00;;
7128;SDS011;3606;52.930;8.644;2023-04-12T07:50:45;5.87;;;2.30;;
7128;SDS011;3606;52.930;8.644;2023-04-12T07:53:43;3.33;;;2.17;;
7128;SDS011;3606;52.930;8.644;2023-04-12T07:56:02;4.67;;;2.10;;
7128;SDS011;3606;52.930;8.644;2023-04-12T07:58:31;4.57;;;2.50;;
7128;SDS011;3606;52.930;8.644;2023-04-12T08:00:57;5.20;;;2.30;;
7128;SDS011;3606;52.930;8.644;2023-04-12T08:03:23;2.67;;;1.73;;
7128;SDS011;3606;52.930;8.644;2023-04-12T08:05:48;9.30;;;2.90;;
7128;SDS011;3606;52.930;8.644;2023-04-12T08:08:17;3.90;;;2.17;;
7128;SDS011;3606;52.930;8.644;2023-04-12T08:10:45;4.70;;;2.50;;
7128;SDS011;3606;52.930;8.644;2023-04-12T08:13:11;7.37;;;2.00;;
7128;SDS011;3606;52.930;8.644;2023-04-12T08:15:36;6.40;;;2.20;;
7128;SDS011;3606;52.930;8.644;2023-04-12T08:18:02;4.50;;;2.47;;
7128;SDS011;3606;52.930;8.644;2023-04-12T08:20:28;3.37;;;2.10;;
7128;SDS011;3606;52.930;8.644;2023-04-12T08:22:53;3.37;;;2.10;;
7128;SDS011;3606;52.930;8.644;2023-04-12T08:25:19;5.30;;;2.50;;
7128;SDS011;3606;52.930;8.644;2023-04-12T08:27:47;4.37;;;2.50;;
7128;SDS011;3606;52.930;8.644;2023-04-12T08:30:13;6.37;;;2.23;;
7128;SDS011;3606;52.930;8.644;2023-04-12T08:32:39;3.90;;;2.33;;
7128;SDS011;3606;52.930;8.644;2023-04-12T08:35:05;3.70;;;2.43;;
7128;SDS011;3606;52.930;8.644;2023-04-12T08:37:32;5.17;;;2.30;;
7128;SDS011;3606;52.930;8.644;2023-04-12T08:39:58;4.20;;;2.37;;
7128;SDS011;3606;52.930;8.644;2023-04-12T08:42:26;2.37;;;2.17;;
7128;SDS011;3606;52.930;8.644;2023-04-12T08:44:52;4.60;;;2.27;;
7128;SDS011;3606;52.930;8.644;2023-04-12T08:47:17;3.23;;;2.50;;
7128;SDS011;3606;52.930;8.644;2023-04-12T08:49:44;4.13;;;2.90;;
7128;SDS011;3606;52.930;8.644;2023-04-12T08:52:10;3.87;;;2.43;;
7128;SDS011;3606;52.930;8.644;2023-04-12T08:54:36;5.30;;;2.60;;
7128;SDS011;3606;52.930;8.644;2023-04-12T08:57:05;3.90;;;2.80;;
7128;SDS011;3606;52.930;8.644;2023-04-12T08:59:33;5.30;;;3.20;;
7128;SDS011;3606;52.930;8.644;2023-04-12T09:02:01;3.87;;;2.83;;
7128;SDS011;3606;52.930;8.644;2023-04-12T09:04:27;5.03;;;2.90;;
7128;SDS011;3606;52.930;8.644;2023-04-12T09:06:53;3.53;;;2.80;;
7128;SDS011;3606;52.930;8.644;2023-04-12T09:09:39;6.87;;;2.70;;
7128;SDS011;3606;52.930;8.644;2023-04-12T09:12:09;5.70;;;2.90;;
7128;SDS011;3606;52.930;8.644;2023-04-12T09:14:36;4.70;;;2.90;;
7128;SDS011;3606;52.930;8.644;2023-04-12T09:17:02;5.07;;;2.90;;
7128;SDS011;3606;52.930;8.644;2023-04-12T09:19:32;6.77;;;3.30;;
7128;SDS011;3606;52.930;8.644;2023-04-12T09:21:59;5.47;;;3.03;;
7128;SDS011;3606;52.930;8.644;2023-04-12T09:24:25;4.33;;;3.23;;
7128;SDS011;3606;52.930;8.644;2023-04-12T09:27:01;7.23;;;3.27;;
7128;SDS011;3606;52.930;8.644;2023-04-12T09:29:31;3.70;;;3.30;;
7128;SDS011;3606;52.930;8.644;2023-04-12T09:32:02;6.43;;;3.33;;
7128;SDS011;3606;52.930;8.644;2023-04-12T09:34:29;3.70;;;3.30;;
7128;SDS011;3606;52.930;8.644;2023-04-12T09:36:55;6.27;;;3.60;;
7128;SDS011;3606;52.930;8.644;2023-04-12T09:39:34;4.53;;;3.40;;
7128;SDS011;3606;52.930;8.644;2023-04-12T09:42:06;7.90;;;3.50;;
7128;SDS011;3606;52.930;8.644;2023-04-12T09:44:33;4.37;;;3.60;;
7128;SDS011;3606;52.930;8.644;2023-04-12T09:46:59;11.53;;;4.03;;
7128;SDS011;3606;52.930;8.644;2023-04-12T09:49:39;5.77;;;3.40;;
7128;SDS011;3606;52.930;8.644;2023-04-12T09:52:06;4.63;;;3.30;;
7128;SDS011;3606;52.930;8.644;2023-04-12T09:54:37;5.57;;;3.43;;
7128;SDS011;3606;52.930;8.644;2023-04-12T09:57:06;8.10;;;3.43;;
7128;SDS011;3606;52.930;8.644;2023-04-12T09:59:36;4.67;;;3.20;;
7128;SDS011;3606;52.930;8.644;2023-04-12T10:02:15;8.20;;;5.03;;
7128;SDS011;3606;52.930;8.644;2023-04-12T10:04:43;6.73;;;3.20;;
7128;SDS011;3606;52.930;8.644;2023-04-12T10:07:09;5.67;;;3.27;;
7128;SDS011;3606;52.930;8.644;2023-04-12T10:09:38;9.17;;;6.27;;
7128;SDS011;3606;52.930;8.644;2023-04-12T10:12:05;5.33;;;4.07;;
7128;SDS011;3606;52.930;8.644;2023-04-12T10:14:32;4.53;;;3.50;;
7128;SDS011;3606;52.930;8.644;2023-04-12T10:16:59;4.87;;;3.27;;
7128;SDS011;3606;52.930;8.644;2023-04-12T10:19:27;5.63;;;3.47;;
7128;SDS011;3606;52.930;8.644;2023-04-12T10:21:55;3.60;;;2.87;;
7128;SDS011;3606;52.930;8.644;2023-04-12T10:24:21;6.03;;;3.30;;
7128;SDS011;3606;52.930;8.644;2023-04-12T10:26:48;4.57;;;3.57;;
7128;SDS011;3606;52.930;8.644;2023-04-12T10:29:24;3.10;;;2.80;;
7128;SDS011;3606;52.930;8.644;2023-04-12T10:31:51;6.27;;;3.73;;
7128;SDS011;3606;52.930;8.644;2023-04-12T10:34:28;6.57;;;3.57;;
7128;SDS011;3606;52.930;8.644;2023-04-12T10:36:58;3.70;;;2.80;;
7128;SDS011;3606;52.930;8.644;2023-04-12T10:39:41;7.00;;;3.00;;
7128;SDS011;3606;52.930;8.644;2023-04-12T10:42:21;5.10;;;3.00;;
7128;SDS011;3606;52.930;8.644;2023-04-12T10:44:56;4.30;;;2.80;;
7128;SDS011;3606;52.930;8.644;2023-04-12T10:50:22;3.37;;;2.83;;
7128;SDS011;3606;52.930;8.644;2023-04-12T10:55:42;3.10;;;2.73;;
7128;SDS011;3606;52.930;8.644;2023-04-12T10:58:09;4.27;;;2.70;;
7128;SDS011;3606;52.930;8.644;2023-04-12T11:03:23;3.83;;;3.00;;
7128;SDS011;3606;52.930;8.644;2023-04-12T11:08:25;3.70;;;3.20;;
7128;SDS011;3606;52.930;8.644;2023-04-12T11:10:57;3.10;;;2.80;;
7128;SDS011;3606;52.930;8.644;2023-04-12T11:13:24;4.37;;;3.07;;
7128;SDS011;3606;52.930;8.644;2023-04-12T11:15:54;3.97;;;2.60;;
7128;SDS011;3606;52.930;8.644;2023-04-12T11:18:23;3.87;;;3.20;;
7128;SDS011;3606;52.930;8.644;2023-04-12T11:20:50;6.40;;;2.77;;
7128;SDS011;3606;52.930;8.644;2023-04-12T11:23:17;4.53;;;2.63;;
7128;SDS011;3606;52.930;8.644;2023-04-12T11:25:43;3.30;;;3.00;;
7128;SDS011;3606;52.930;8.644;2023-04-12T11:28:15;4.73;;;3.43;;
7128;SDS011;3606;52.930;8.644;2023-04-12T11:30:49;5.13;;;3.27;;
7128;SDS011;3606;52.930;8.644;2023-04-12T11:35:58;9.83;;;4.17;;
7128;SDS011;3606;52.930;8.644;2023-04-12T11:38:26;5.07;;;3.60;;
7128;SDS011;3606;52.930;8.644;2023-04-12T11:40:52;4.73;;;3.13;;
7128;SDS011;3606;52.930;8.644;2023-04-12T11:43:18;6.57;;;3.50;;
7128;SDS011;3606;52.930;8.644;2023-04-12T11:45:45;4.27;;;3.10;;
7128;SDS011;3606;52.930;8.644;2023-04-12T11:48:10;5.13;;;3.20;;
7128;SDS011;3606;52.930;8.644;2023-04-12T11:50:36;4.23;;;3.40;;
7128;SDS011;3606;52.930;8.644;2023-04-12T11:53:12;4.90;;;3.50;;
7128;SDS011;3606;52.930;8.644;2023-04-12T11:55:39;5.80;;;3.70;;
7128;SDS011;3606;52.930;8.644;2023-04-12T11:58:05;5.10;;;3.50;;
7128;SDS011;3606;52.930;8.644;2023-04-12T12:00:31;4.50;;;3.50;;
7128;SDS011;3606;52.930;8.644;2023-04-12T12:02:57;3.63;;;3.17;;
7128;SDS011;3606;52.930;8.644;2023-04-12T12:05:22;5.10;;;3.20;;
7128;SDS011;3606;52.930;8.644;2023-04-12T12:07:48;6.50;;;3.70;;
7128;SDS011;3606;52.930;8.644;2023-04-12T12:10:14;5.60;;;3.60;;
7128;SDS011;3606;52.930;8.644;2023-04-12T12:12:44;6.53;;;3.60;;
7128;SDS011;3606;52.930;8.644;2023-04-12T12:15:13;6.60;;;3.70;;
7128;SDS011;3606;52.930;8.644;2023-04-12T12:17:39;5.13;;;4.63;;
7128;SDS011;3606;52.930;8.644;2023-04-12T12:20:05;7.67;;;4.67;;
7128;SDS011;3606;52.930;8.644;2023-04-12T12:22:31;5.83;;;4.03;;
7128;SDS011;3606;52.930;8.644;2023-04-12T12:24:57;3.03;;;2.73;;
7128;SDS011;3606;52.930;8.644;2023-04-12T12:27:30;3.63;;;2.60;;
7128;SDS011;3606;52.930;8.644;2023-04-12T12:29:59;3.90;;;3.60;;
7128;SDS011;3606;52.930;8.644;2023-04-12T12:32:30;3.70;;;2.57;;
7128;SDS011;3606;52.930;8.644;2023-04-12T12:34:58;5.00;;;2.70;;
7128;SDS011;3606;52.930;8.644;2023-04-12T12:37:24;3.00;;;2.37;;
7128;SDS011;3606;52.930;8.644;2023-04-12T12:45:16;3.00;;;2.70;;
7128;SDS011;3606;52.930;8.644;2023-04-12T12:47:47;3.63;;;3.10;;
7128;SDS011;3606;52.930;8.644;2023-04-12T12:50:14;3.40;;;2.93;;
7128;SDS011;3606;52.930;8.644;2023-04-12T12:52:41;5.97;;;2.90;;
7128;SDS011;3606;52.930;8.644;2023-04-12T12:55:09;3.10;;;2.80;;
7128;SDS011;3606;52.930;8.644;2023-04-12T12:57:35;3.67;;;2.57;;
7128;SDS011;3606;52.930;8.644;2023-04-12T13:00:00;6.20;;;3.67;;
7128;SDS011;3606;52.930;8.644;2023-04-12T13:02:28;3.30;;;3.00;;
7128;SDS011;3606;52.930;8.644;2023-04-12T13:04:54;6.47;;;2.67;;
7128;SDS011;3606;52.930;8.644;2023-04-12T13:07:19;5.47;;;3.20;;
7128;SDS011;3606;52.930;8.644;2023-04-12T13:09:45;5.33;;;4.10;;
7128;SDS011;3606;52.930;8.644;2023-04-12T13:12:10;6.70;;;4.60;;
7128;SDS011;3606;52.930;8.644;2023-04-12T13:14:39;4.87;;;3.80;;
7128;SDS011;3606;52.930;8.644;2023-04-12T13:17:05;4.80;;;3.10;;
7128;SDS011;3606;52.930;8.644;2023-04-12T13:19:31;4.73;;;3.50;;
7128;SDS011;3606;52.930;8.644;2023-04-12T13:21:57;4.90;;;2.90;;
7128;SDS011;3606;52.930;8.644;2023-04-12T13:24:23;3.33;;;2.70;;
7128;SDS011;3606;52.930;8.644;2023-04-12T13:26:48;4.30;;;3.57;;
7128;SDS011;3606;52.930;8.644;2023-04-12T13:29:15;4.67;;;3.43;;
7128;SDS011;3606;52.930;8.644;2023-04-12T13:31:41;7.27;;;4.50;;
7128;SDS011;3606;52.930;8.644;2023-04-12T13:34:06;4.43;;;3.73;;
7128;SDS011;3606;52.930;8.644;2023-04-12T13:36:32;3.43;;;3.13;;
7128;SDS011;3606;52.930;8.644;2023-04-12T13:38:58;3.40;;;3.10;;
7128;SDS011;3606;52.930;8.644;2023-04-12T13:41:24;4.90;;;3.20;;
7128;SDS011;3606;52.930;8.644;2023-04-12T13:43:49;2.70;;;2.50;;
7128;SDS011;3606;52.930;8.644;2023-04-12T13:46:15;3.00;;;2.70;;
7128;SDS011;3606;52.930;8.644;2023-04-12T13:48:40;3.13;;;2.40;;
7128;SDS011;3606;52.930;8.644;2023-04-12T13:51:06;3.60;;;2.43;;
7128;SDS011;3606;52.930;8.644;2023-04-12T13:53:33;3.07;;;2.77;;
7128;SDS011;3606;52.930;8.644;2023-04-12T13:55:58;2.73;;;2.40;;
7128;SDS011;3606;52.930;8.644;2023-04-12T13:58:24;2.50;;;2.30;;
7128;SDS011;3606;52.930;8.644;2023-04-12T14:00:50;3.60;;;2.27;;
7128;SDS011;3606;52.930;8.644;2023-04-12T14:03:18;2.33;;;2.13;;
7128;SDS011;3606;52.930;8.644;2023-04-12T14:05:43;2.57;;;2.37;;
7128;SDS011;3606;52.930;8.644;2023-04-12T14:08:09;2.40;;;2.20;;
7128;SDS011;3606;52.930;8.644;2023-04-12T14:10:35;2.67;;;2.37;;
7128;SDS011;3606;52.930;8.644;2023-04-12T14:13:00;2.60;;;2.40;;
7128;SDS011;3606;52.930;8.644;2023-04-12T14:15:26;2.43;;;2.23;;
7128;SDS011;3606;52.930;8.644;2023-04-12T14:17:51;3.43;;;2.10;;
7128;SDS011;3606;52.930;8.644;2023-04-12T14:20:17;3.50;;;2.30;;
7128;SDS011;3606;52.930;8.644;2023-04-12T14:22:43;2.30;;;2.10;;
7128;SDS011;3606;52.930;8.644;2023-04-12T14:25:08;1.97;;;1.87;;
7128;SDS011;3606;52.930;8.644;2023-04-12T14:27:35;2.40;;;2.20;;
7128;SDS011;3606;52.930;8.644;2023-04-12T14:30:01;2.33;;;2.13;;
7128;SDS011;3606;52.930;8.644;2023-04-12T14:32:28;2.97;;;2.30;;
7128;SDS011;3606;52.930;8.644;2023-04-12T14:34:54;3.87;;;3.33;;
7128;SDS011;3606;52.930;8.644;2023-04-12T14:37:19;5.20;;;3.43;;
7128;SDS011;3606;52.930;8.644;2023-04-12T14:39:45;3.23;;;2.93;;
7128;SDS011;3606;52.930;8.644;2023-04-12T14:42:11;3.60;;;3.30;;
7128;SDS011;3606;52.930;8.644;2023-04-12T14:44:36;5.30;;;4.03;;
7128;SDS011;3606;52.930;8.644;2023-04-12T14:47:02;3.53;;;3.23;;
7128;SDS011;3606;52.930;8.644;2023-04-12T14:49:28;2.83;;;2.50;;
7128;SDS011;3606;52.930;8.644;2023-04-12T14:51:55;3.20;;;2.90;;
7128;SDS011;3606;52.930;8.644;2023-04-12T14:54:21;3.27;;;2.97;;
7128;SDS011;3606;52.930;8.644;2023-04-12T14:56:46;4.07;;;3.63;;
7128;SDS011;3606;52.930;8.644;2023-04-12T14:59:12;3.47;;;3.17;;
7128;SDS011;3606;52.930;8.644;2023-04-12T15:01:39;3.93;;;3.00;;
7128;SDS011;3606;52.930;8.644;2023-04-12T15:04:05;3.67;;;3.20;;
7128;SDS011;3606;52.930;8.644;2023-04-12T15:06:30;3.50;;;3.23;;
7128;SDS011;3606;52.930;8.644;2023-04-12T15:08:59;3.40;;;3.10;;
7128;SDS011;3606;52.930;8.644;2023-04-12T15:11:28;3.63;;;3.33;;
7128;SDS011;3606;52.930;8.644;2023-04-12T15:13:53;5.03;;;3.43;;
7128;SDS011;3606;52.930;8.644;2023-04-12T15:16:19;3.90;;;3.60;;
7128;SDS011;3606;52.930;8.644;2023-04-12T15:18:45;3.33;;;2.83;;
7128;SDS011;3606;52.930;8.644;2023-04-12T15:21:11;2.93;;;2.63;;
7128;SDS011;3606;52.930;8.644;2023-04-12T15:23:38;2.50;;;2.30;;
7128;SDS011;3606;52.930;8.644;2023-04-12T15:26:05;2.50;;;2.30;;
7128;SDS011;3606;52.930;8.644;2023-04-12T15:28:32;2.03;;;1.93;;
7128;SDS011;3606;52.930;8.644;2023-04-12T15:30:59;2.10;;;2.00;;
7128;SDS011;3606;52.930;8.644;2023-04-12T15:33:25;2.40;;;2.20;;
7128;SDS011;3606;52.930;8.644;2023-04-12T15:35:52;3.10;;;2.80;;
7128;SDS011;3606;52.930;8.644;2023-04-12T15:38:21;2.67;;;2.47;;
7128;SDS011;3606;52.930;8.644;2023-04-12T15:40:54;2.67;;;2.40;;
7128;SDS011;3606;52.930;8.644;2023-04-12T15:43:22;2.90;;;2.60;;
7128;SDS011;3606;52.930;8.644;2023-04-12T15:45:49;2.97;;;2.67;;